sensor_id;sensor_type;location;lat;lon;timestamp;pressure;altitude;pressure_sealevel;temperature
42673;BMP280;28284;46.514;30.724;2023-04-25T00:01:18;100455.91;;;13.01
42673;BMP280;28284;46.514;30.724;2023-04-25T00:03:44;100448.94;;;13.00
42673;BMP280;28284;46.514;30.724;2023-04-25T00:06:10;100457.09;;;13.00
42673;BMP280;28284;46.514;30.724;2023-04-25T00:08:36;100457.84;;;12.97
42673;BMP280;28284;46.514;30.724;2023-04-25T00:11:01;100460.22;;;12.95
42673;BMP280;28284;46.514;30.724;2023-04-25T00:13:26;100457.84;;;12.90
42673;BMP280;28284;46.514;30.724;2023-04-25T00:15:52;100455.16;;;12.87
42673;BMP280;28284;46.514;30.724;2023-04-25T00:18:18;100448.19;;;12.86
42673;BMP280;28284;46.514;30.724;2023-04-25T00:20:44;100445.84;;;12.84
42673;BMP280;28284;46.514;30.724;2023-04-25T00:23:15;100451.28;;;12.84
42673;BMP280;28284;46.514;30.724;2023-04-25T00:25:42;100449.34;;;12.85
42673;BMP280;28284;46.514;30.724;2023-04-25T00:28:08;100443.91;;;12.85
42673;BMP280;28284;46.514;30.724;2023-04-25T00:30:33;100448.19;;;12.86
42673;BMP280;28284;46.514;30.724;2023-04-25T00:32:58;100443.50;;;12.86
42673;BMP280;28284;46.514;30.724;2023-04-25T00:35:23;100447.00;;;12.83
42673;BMP280;28284;46.514;30.724;2023-04-25T00:37:49;100439.66;;;12.80
42673;BMP280;28284;46.514;30.724;2023-04-25T00:40:14;100442.78;;;12.75
42673;BMP280;28284;46.514;30.724;2023-04-25T00:42:39;100433.06;;;12.71
42673;BMP280;28284;46.514;30.724;2023-04-25T00:45:06;100437.34;;;12.65
42673;BMP280;28284;46.514;30.724;2023-04-25T00:47:32;100433.13;;;12.60
42673;BMP280;28284;46.514;30.724;2023-04-25T00:49:58;100432.38;;;12.56
42673;BMP280;28284;46.514;30.724;2023-04-25T00:52:23;100427.31;;;12.55
42673;BMP280;28284;46.514;30.724;2023-04-25T00:54:48;100435.44;;;12.55
42673;BMP280;28284;46.514;30.724;2023-04-25T00:57:14;100424.94;;;12.53
42673;BMP280;28284;46.514;30.724;2023-04-25T00:59:39;100430.78;;;12.55
42673;BMP280;28284;46.514;30.724;2023-04-25T01:02:06;100419.91;;;12.59
42673;BMP280;28284;46.514;30.724;2023-04-25T01:04:32;100422.25;;;12.60
42673;BMP280;28284;46.514;30.724;2023-04-25T01:06:57;100417.97;;;12.59
42673;BMP280;28284;46.514;30.724;2023-04-25T01:09:23;100411.75;;;12.59
42673;BMP280;28284;46.514;30.724;2023-04-25T01:11:49;100411.75;;;12.59
42673;BMP280;28284;46.514;30.724;2023-04-25T01:14:14;100406.31;;;12.59
42673;BMP280;28284;46.514;30.724;2023-04-25T01:16:40;100407.47;;;12.58
42673;BMP280;28284;46.514;30.724;2023-04-25T01:19:09;100396.63;;;12.58
42673;BMP280;28284;46.514;30.724;2023-04-25T01:21:37;100398.97;;;12.63
42673;BMP280;28284;46.514;30.724;2023-04-25T01:24:02;100392.34;;;12.67
42673;BMP280;28284;46.514;30.724;2023-04-25T01:26:27;100392.75;;;12.69
42673;BMP280;28284;46.514;30.724;2023-04-25T01:28:53;100390.03;;;12.69
42673;BMP280;28284;46.514;30.724;2023-04-25T01:31:18;100380.69;;;12.70
42673;BMP280;28284;46.514;30.724;2023-04-25T01:33:44;100377.97;;;12.70
42673;BMP280;28284;46.514;30.724;2023-04-25T01:36:10;100377.97;;;12.70
42673;BMP280;28284;46.514;30.724;2023-04-25T01:38:35;100372.53;;;12.70
42673;BMP280;28284;46.514;30.724;2023-04-25T01:41:00;100367.50;;;12.72
42673;BMP280;28284;46.514;30.724;2023-04-25T01:43:26;100367.84;;;12.71
42673;BMP280;28284;46.514;30.724;2023-04-25T01:45:51;100371.75;;;12.70
42673;BMP280;28284;46.514;30.724;2023-04-25T01:48:17;100364.03;;;12.68
42673;BMP280;28284;46.514;30.724;2023-04-25T01:50:43;100361.69;;;12.67
42673;BMP280;28284;46.514;30.724;2023-04-25T01:53:09;100357.41;;;12.66
42673;BMP280;28284;46.514;30.724;2023-04-25T01:55:34;100359.38;;;12.65
42673;BMP280;28284;46.514;30.724;2023-04-25T01:58:00;100336.88;;;12.58
42673;BMP280;28284;46.514;30.724;2023-04-25T02:00:26;100341.16;;;12.62
42673;BMP280;28284;46.514;30.724;2023-04-25T02:02:52;100334.94;;;12.62
42673;BMP280;28284;46.514;30.724;2023-04-25T02:05:18;100329.50;;;12.62
42673;BMP280;28284;46.514;30.724;2023-04-25T02:07:43;100326.38;;;12.63
42673;BMP280;28284;46.514;30.724;2023-04-25T02:10:09;100322.16;;;12.62
42673;BMP280;28284;46.514;30.724;2023-04-25T02:12:35;100322.91;;;12.63
42673;BMP280;28284;46.514;30.724;2023-04-25T02:15:00;100318.63;;;12.62
42673;BMP280;28284;46.514;30.724;2023-04-25T02:17:26;100322.91;;;12.63
42673;BMP280;28284;46.514;30.724;2023-04-25T02:19:52;100318.22;;;12.63
42673;BMP280;28284;46.514;30.724;2023-04-25T02:22:17;100314.00;;;12.62
42673;BMP280;28284;46.514;30.724;2023-04-25T02:24:42;100317.47;;;12.63
42673;BMP280;28284;46.514;30.724;2023-04-25T02:27:07;100311.66;;;12.61
42673;BMP280;28284;46.514;30.724;2023-04-25T02:29:33;100316.69;;;12.59
42673;BMP280;28284;46.514;30.724;2023-04-25T02:31:58;100319.03;;;12.57
42673;BMP280;28284;46.514;30.724;2023-04-25T02:34:23;100323.72;;;12.56
42673;BMP280;28284;46.514;30.724;2023-04-25T02:36:49;100313.59;;;12.57
42673;BMP280;28284;46.514;30.724;2023-04-25T02:39:16;100311.66;;;12.57
42673;BMP280;28284;46.514;30.724;2023-04-25T02:41:41;100307.78;;;12.58
42673;BMP280;28284;46.514;30.724;2023-04-25T02:44:06;100305.84;;;12.59
42673;BMP280;28284;46.514;30.724;2023-04-25T02:46:31;100299.63;;;12.58
42673;BMP280;28284;46.514;30.724;2023-04-25T02:48:57;100300.41;;;12.62
42673;BMP280;28284;46.514;30.724;2023-04-25T02:51:22;100299.59;;;12.65
42673;BMP280;28284;46.514;30.724;2023-04-25T02:53:47;100300.75;;;12.68
42673;BMP280;28284;46.514;30.724;2023-04-25T02:56:13;100295.31;;;12.71
42673;BMP280;28284;46.514;30.724;2023-04-25T02:58:38;100300.31;;;12.76
42673;BMP280;28284;46.514;30.724;2023-04-25T03:01:03;100300.66;;;12.85
42673;BMP280;28284;46.514;30.724;2023-04-25T03:03:28;100300.19;;;13.04
42673;BMP280;28284;46.514;30.724;2023-04-25T03:05:54;100301.94;;;13.35
42673;BMP280;28284;46.514;30.724;2023-04-25T03:08:19;100310.28;;;13.58
42673;BMP280;28284;46.514;30.724;2023-04-25T03:10:44;100330.22;;;13.91
42673;BMP280;28284;46.514;30.724;2023-04-25T03:13:10;100337.53;;;14.38
42673;BMP280;28284;46.514;30.724;2023-04-25T03:15:35;100347.34;;;14.95
42673;BMP280;28284;46.514;30.724;2023-04-25T03:18:01;100370.16;;;15.57
42673;BMP280;28284;46.514;30.724;2023-04-25T03:20:26;100385.88;;;16.18
42673;BMP280;28284;46.514;30.724;2023-04-25T03:22:52;100395.13;;;16.82
42673;BMP280;28284;46.514;30.724;2023-04-25T03:25:17;100403.81;;;17.48
42673;BMP280;28284;46.514;30.724;2023-04-25T03:27:42;100409.41;;;18.20
42673;BMP280;28284;46.514;30.724;2023-04-25T03:30:07;100411.78;;;19.00
42673;BMP280;28284;46.514;30.724;2023-04-25T03:32:33;100415.97;;;19.75
42673;BMP280;28284;46.514;30.724;2023-04-25T03:34:59;100421.75;;;20.45
42673;BMP280;28284;46.514;30.724;2023-04-25T03:37:24;100423.59;;;21.08
42673;BMP280;28284;46.514;30.724;2023-04-25T03:39:49;100426.53;;;21.71
42673;BMP280;28284;46.514;30.724;2023-04-25T03:42:15;100427.75;;;22.23
42673;BMP280;28284;46.514;30.724;2023-04-25T03:44:40;100441.63;;;22.64
42673;BMP280;28284;46.514;30.724;2023-04-25T03:47:05;100446.28;;;23.23
42673;BMP280;28284;46.514;30.724;2023-04-25T03:49:31;100438.47;;;23.68
42673;BMP280;28284;46.514;30.724;2023-04-25T03:51:56;100441.91;;;24.01
42673;BMP280;28284;46.514;30.724;2023-04-25T03:54:21;100443.25;;;24.34
42673;BMP280;28284;46.514;30.724;2023-04-25T03:56:47;100434.84;;;24.71
42673;BMP280;28284;46.514;30.724;2023-04-25T03:59:13;100431.31;;;25.05
42673;BMP280;28284;46.514;30.724;2023-04-25T04:01:38;100433.38;;;25.44
42673;BMP280;28284;46.514;30.724;2023-04-25T04:04:04;100440.69;;;25.87
42673;BMP280;28284;46.514;30.724;2023-04-25T04:06:29;100445.28;;;26.20
42673;BMP280;28284;46.514;30.724;2023-04-25T04:08:54;100431.81;;;26.70
42673;BMP280;28284;46.514;30.724;2023-04-25T04:11:20;100429.84;;;27.23
42673;BMP280;28284;46.514;30.724;2023-04-25T04:13:45;100443.69;;;27.80
42673;BMP280;28284;46.514;30.724;2023-04-25T04:16:11;100446.25;;;28.44
42673;BMP280;28284;46.514;30.724;2023-04-25T04:18:36;100442.66;;;28.76
42673;BMP280;28284;46.514;30.724;2023-04-25T04:21:02;100442.38;;;28.96
42673;BMP280;28284;46.514;30.724;2023-04-25T04:23:27;100443.47;;;29.33
42673;BMP280;28284;46.514;30.724;2023-04-25T04:25:53;100443.88;;;29.53
42673;BMP280;28284;46.514;30.724;2023-04-25T04:28:19;100441.44;;;29.73
42673;BMP280;28284;46.514;30.724;2023-04-25T04:30:45;100444.13;;;29.90
42673;BMP280;28284;46.514;30.724;2023-04-25T04:33:11;100447.94;;;29.92
42673;BMP280;28284;46.514;30.724;2023-04-25T04:35:37;100443.38;;;30.24
42673;BMP280;28284;46.514;30.724;2023-04-25T04:38:02;100454.88;;;30.39
42673;BMP280;28284;46.514;30.724;2023-04-25T04:40:27;100440.69;;;30.37
42673;BMP280;28284;46.514;30.724;2023-04-25T04:42:53;100449.13;;;30.55
42673;BMP280;28284;46.514;30.724;2023-04-25T04:45:21;100440.13;;;30.91
42673;BMP280;28284;46.514;30.724;2023-04-25T04:47:47;100437.56;;;31.30
42673;BMP280;28284;46.514;30.724;2023-04-25T04:50:13;100445.84;;;31.72
42673;BMP280;28284;46.514;30.724;2023-04-25T04:52:40;100443.28;;;32.18
42673;BMP280;28284;46.514;30.724;2023-04-25T04:55:05;100438.03;;;32.40
42673;BMP280;28284;46.514;30.724;2023-04-25T04:57:30;100440.63;;;32.51
42673;BMP280;28284;46.514;30.724;2023-04-25T04:59:58;100435.75;;;32.26
42673;BMP280;28284;46.514;30.724;2023-04-25T05:02:23;100438.91;;;32.35
42673;BMP280;28284;46.514;30.724;2023-04-25T05:04:48;100438.03;;;32.14
42673;BMP280;28284;46.514;30.724;2023-04-25T05:07:15;100446.63;;;31.54
42673;BMP280;28284;46.514;30.724;2023-04-25T05:09:40;100435.47;;;31.67
42673;BMP280;28284;46.514;30.724;2023-04-25T05:12:06;100436.91;;;31.73
42673;BMP280;28284;46.514;30.724;2023-04-25T05:14:31;100446.44;;;31.34
42673;BMP280;28284;46.514;30.724;2023-04-25T05:16:56;100435.97;;;31.34
42673;BMP280;28284;46.514;30.724;2023-04-25T05:19:21;100444.22;;;31.27
42673;BMP280;28284;46.514;30.724;2023-04-25T05:21:47;100439.06;;;31.12
42673;BMP280;28284;46.514;30.724;2023-04-25T05:24:12;100438.13;;;30.86
42673;BMP280;28284;46.514;30.724;2023-04-25T05:26:37;100429.22;;;30.40
42673;BMP280;28284;46.514;30.724;2023-04-25T05:29:03;100430.94;;;29.90
42673;BMP280;28284;46.514;30.724;2023-04-25T05:31:28;100436.44;;;30.30
42673;BMP280;28284;46.514;30.724;2023-04-25T05:33:53;100433.94;;;30.74
42673;BMP280;28284;46.514;30.724;2023-04-25T05:36:19;100436.06;;;31.11
42673;BMP280;28284;46.514;30.724;2023-04-25T05:38:44;100434.75;;;31.48
42673;BMP280;28284;46.514;30.724;2023-04-25T05:41:10;100440.84;;;31.65
42673;BMP280;28284;46.514;30.724;2023-04-25T05:43:35;100433.91;;;31.53
42673;BMP280;28284;46.514;30.724;2023-04-25T05:46:00;100425.31;;;31.33
42673;BMP280;28284;46.514;30.724;2023-04-25T05:48:26;100423.88;;;30.84
42673;BMP280;28284;46.514;30.724;2023-04-25T05:50:51;100427.25;;;30.35
42673;BMP280;28284;46.514;30.724;2023-04-25T05:53:16;100420.03;;;29.87
42673;BMP280;28284;46.514;30.724;2023-04-25T05:55:42;100412.88;;;29.57
42673;BMP280;28284;46.514;30.724;2023-04-25T05:58:07;100402.16;;;29.26
42673;BMP280;28284;46.514;30.724;2023-04-25T06:00:33;100411.09;;;29.19
42673;BMP280;28284;46.514;30.724;2023-04-25T06:02:58;100412.38;;;29.13
42673;BMP280;28284;46.514;30.724;2023-04-25T06:05:24;100413.50;;;29.39
42673;BMP280;28284;46.514;30.724;2023-04-25T06:07:49;100404.78;;;29.08
42673;BMP280;28284;46.514;30.724;2023-04-25T06:10:15;100397.66;;;29.12
42673;BMP280;28284;46.514;30.724;2023-04-25T06:12:40;100411.16;;;28.97
42673;BMP280;28284;46.514;30.724;2023-04-25T06:15:06;100401.34;;;29.31
42673;BMP280;28284;46.514;30.724;2023-04-25T06:17:31;100399.69;;;29.92
42673;BMP280;28284;46.514;30.724;2023-04-25T06:19:56;100387.84;;;30.10
42673;BMP280;28284;46.514;30.724;2023-04-25T06:22:22;100391.38;;;30.39
42673;BMP280;28284;46.514;30.724;2023-04-25T06:24:47;100395.66;;;30.64
42673;BMP280;28284;46.514;30.724;2023-04-25T06:27:12;100395.31;;;30.25
42673;BMP280;28284;46.514;30.724;2023-04-25T06:29:37;100387.69;;;30.26
42673;BMP280;28284;46.514;30.724;2023-04-25T06:32:03;100395.66;;;30.64
42673;BMP280;28284;46.514;30.724;2023-04-25T06:34:28;100386.22;;;30.67
42673;BMP280;28284;46.514;30.724;2023-04-25T06:36:53;100397.06;;;30.52
42673;BMP280;28284;46.514;30.724;2023-04-25T06:39:19;100381.16;;;30.42
42673;BMP280;28284;46.514;30.724;2023-04-25T06:41:45;100388.16;;;29.71
42673;BMP280;28284;46.514;30.724;2023-04-25T06:44:10;100384.81;;;29.44
42673;BMP280;28284;46.514;30.724;2023-04-25T06:46:35;100385.59;;;29.73
42673;BMP280;28284;46.514;30.724;2023-04-25T06:49:01;100402.31;;;29.79
42673;BMP280;28284;46.514;30.724;2023-04-25T06:51:26;100393.34;;;29.91
42673;BMP280;28284;46.514;30.724;2023-04-25T06:53:54;100394.03;;;29.68
42673;BMP280;28284;46.514;30.724;2023-04-25T06:56:19;100403.19;;;29.18
42673;BMP280;28284;46.514;30.724;2023-04-25T06:58:46;100401.66;;;28.55
42673;BMP280;28284;46.514;30.724;2023-04-25T07:01:11;100387.78;;;27.89
42673;BMP280;28284;46.514;30.724;2023-04-25T07:03:36;100396.56;;;27.61
42673;BMP280;28284;46.514;30.724;2023-04-25T07:06:02;100394.25;;;27.43
42673;BMP280;28284;46.514;30.724;2023-04-25T07:08:28;100388.06;;;27.12
42673;BMP280;28284;46.514;30.724;2023-04-25T07:10:53;100384.63;;;26.80
42673;BMP280;28284;46.514;30.724;2023-04-25T07:13:19;100383.91;;;26.44
42673;BMP280;28284;46.514;30.724;2023-04-25T07:15:44;100379.34;;;25.85
42673;BMP280;28284;46.514;30.724;2023-04-25T07:18:10;100386.31;;;25.55
42673;BMP280;28284;46.514;30.724;2023-04-25T07:20:35;100383.16;;;25.42
42673;BMP280;28284;46.514;30.724;2023-04-25T07:23:01;100374.63;;;25.46
42673;BMP280;28284;46.514;30.724;2023-04-25T07:25:26;100385.84;;;25.57
42673;BMP280;28284;46.514;30.724;2023-04-25T07:27:51;100373.97;;;25.56
42673;BMP280;28284;46.514;30.724;2023-04-25T07:30:17;100382.53;;;25.78
42673;BMP280;28284;46.514;30.724;2023-04-25T07:32:42;100378.88;;;25.86
42673;BMP280;28284;46.514;30.724;2023-04-25T07:35:07;100378.34;;;25.88
42673;BMP280;28284;46.514;30.724;2023-04-25T07:37:33;100379.03;;;26.03
42673;BMP280;28284;46.514;30.724;2023-04-25T07:39:59;100387.78;;;26.26
42673;BMP280;28284;46.514;30.724;2023-04-25T07:42:24;100374.53;;;26.11
42673;BMP280;28284;46.514;30.724;2023-04-25T07:44:49;100401.75;;;26.07
42673;BMP280;28284;46.514;30.724;2023-04-25T07:47:16;100382.75;;;26.00
42673;BMP280;28284;46.514;30.724;2023-04-25T07:49:43;100378.09;;;25.86
42673;BMP280;28284;46.514;30.724;2023-04-25T07:52:10;100378.56;;;25.59
42673;BMP280;28284;46.514;30.724;2023-04-25T07:54:35;100368.66;;;25.53
42673;BMP280;28284;46.514;30.724;2023-04-25T07:57:00;100364.34;;;25.52
42673;BMP280;28284;46.514;30.724;2023-04-25T07:59:27;100360.88;;;25.31
42673;BMP280;28284;46.514;30.724;2023-04-25T08:01:52;100381.91;;;25.23
42673;BMP280;28284;46.514;30.724;2023-04-25T08:04:17;100365.44;;;24.95
42673;BMP280;28284;46.514;30.724;2023-04-25T08:06:43;100360.25;;;24.68
42673;BMP280;28284;46.514;30.724;2023-04-25T08:09:08;100365.56;;;24.37
42673;BMP280;28284;46.514;30.724;2023-04-25T08:11:34;100373.75;;;24.46
42673;BMP280;28284;46.514;30.724;2023-04-25T08:13:59;100364.50;;;24.49
42673;BMP280;28284;46.514;30.724;2023-04-25T08:16:25;100379.91;;;24.21
42673;BMP280;28284;46.514;30.724;2023-04-25T08:18:50;100373.53;;;24.01
42673;BMP280;28284;46.514;30.724;2023-04-25T08:21:15;100386.63;;;23.77
42673;BMP280;28284;46.514;30.724;2023-04-25T08:23:41;100369.53;;;23.79
42673;BMP280;28284;46.514;30.724;2023-04-25T08:26:06;100374.22;;;23.73
42673;BMP280;28284;46.514;30.724;2023-04-25T08:28:32;100370.56;;;23.67
42673;BMP280;28284;46.514;30.724;2023-04-25T08:30:57;100373.88;;;23.56
42673;BMP280;28284;46.514;30.724;2023-04-25T08:33:22;100353.94;;;23.38
42673;BMP280;28284;46.514;30.724;2023-04-25T08:35:48;100373.06;;;23.27
42673;BMP280;28284;46.514;30.724;2023-04-25T08:38:13;100363.69;;;23.48
42673;BMP280;28284;46.514;30.724;2023-04-25T08:40:39;100365.72;;;23.62
42673;BMP280;28284;46.514;30.724;2023-04-25T08:43:06;100363.38;;;23.69
42673;BMP280;28284;46.514;30.724;2023-04-25T08:45:36;100367.56;;;23.79
42673;BMP280;28284;46.514;30.724;2023-04-25T08:48:03;100364.13;;;23.70
42673;BMP280;28284;46.514;30.724;2023-04-25T08:50:38;100358.19;;;23.62
42673;BMP280;28284;46.514;30.724;2023-04-25T08:53:08;100362.16;;;23.47
42673;BMP280;28284;46.514;30.724;2023-04-25T08:55:35;100358.03;;;23.43
42673;BMP280;28284;46.514;30.724;2023-04-25T08:58:01;100348.47;;;23.29
42673;BMP280;28284;46.514;30.724;2023-04-25T09:00:27;100353.66;;;23.13
42673;BMP280;28284;46.514;30.724;2023-04-25T09:02:52;100358.06;;;22.87
42673;BMP280;28284;46.514;30.724;2023-04-25T09:05:19;100354.97;;;22.62
42673;BMP280;28284;46.514;30.724;2023-04-25T09:07:44;100351.91;;;22.60
42673;BMP280;28284;46.514;30.724;2023-04-25T09:10:09;100350.75;;;22.52
42673;BMP280;28284;46.514;30.724;2023-04-25T09:12:35;100348.13;;;22.57
42673;BMP280;28284;46.514;30.724;2023-04-25T09:15:03;100351.56;;;22.76
